createdAt,value
2023-05-09T00:00:38.354Z,76.90
2023-05-09T00:03:23.306Z,76.60
2023-05-09T00:06:09.575Z,76.70
2023-05-09T00:08:55.784Z,76.70
2023-05-09T00:11:41.241Z,76.70
2023-05-09T00:14:27.383Z,77.40
2023-05-09T00:17:14.546Z,77.80
2023-05-09T00:20:01.570Z,76.90
2023-05-09T00:22:46.954Z,76.90
2023-05-09T00:25:32.751Z,77.00
2023-05-09T00:28:17.994Z,77.10
2023-05-09T00:31:03.745Z,77.20
2023-05-09T00:33:49.041Z,77.10
2023-05-09T00:36:34.323Z,76.90
2023-05-09T00:39:19.666Z,76.60
2023-05-09T00:42:05.220Z,76.90
2023-05-09T00:44:50.597Z,77.00
2023-05-09T00:47:36.245Z,77.00
2023-05-09T00:50:21.948Z,77.10
2023-05-09T00:53:08.211Z,77.90
2023-05-09T00:55:56.581Z,77.20
2023-05-09T00:58:41.882Z,77.40
2023-05-09T01:01:27.363Z,76.90
2023-05-09T01:04:14.017Z,77.10
2023-05-09T01:07:18.977Z,77.50
2023-05-09T01:10:23.117Z,77.20
2023-05-09T01:13:30.595Z,77.40
2023-05-09T01:16:55.028Z,77.50
2023-05-09T01:19:46.319Z,77.50
2023-05-09T01:22:35.923Z,77.10
2023-05-09T01:25:26.765Z,77.30
2023-05-09T01:28:36.520Z,77.60
2023-05-09T01:31:22.811Z,77.40
2023-05-09T01:34:11.199Z,77.90
2023-05-09T01:36:59.771Z,77.70
2023-05-09T01:39:49.834Z,78.00
2023-05-09T01:42:42.478Z,77.70
2023-05-09T01:45:29.201Z,77.40
2023-05-09T01:48:14.774Z,77.80
2023-05-09T01:51:01.549Z,77.40
2023-05-09T01:53:49.712Z,77.30
2023-05-09T01:56:36.539Z,77.00
2023-05-09T01:59:22.813Z,76.70
2023-05-09T02:02:08.282Z,76.70
2023-05-09T02:04:56.161Z,77.10
2023-05-09T02:07:42.817Z,77.20
2023-05-09T02:10:28.715Z,77.00
2023-05-09T02:13:14.118Z,77.20
2023-05-09T02:16:00.876Z,77.20
2023-05-09T02:18:47.052Z,77.10
2023-05-09T02:21:32.657Z,77.20
2023-05-09T02:24:17.969Z,77.40
2023-05-09T02:27:05.285Z,77.50
2023-05-09T02:29:54.938Z,77.70
2023-05-09T02:32:43.269Z,77.60
2023-05-09T02:35:29.205Z,77.70
2023-05-09T02:38:15.560Z,78.00
2023-05-09T02:41:00.579Z,77.80
2023-05-09T02:43:46.054Z,77.50
2023-05-09T02:46:31.883Z,77.50
2023-05-09T02:49:31.338Z,77.60
2023-05-09T02:52:17.802Z,77.50
2023-05-09T02:55:03.834Z,77.30
2023-05-09T02:57:51.963Z,77.70
2023-05-09T03:00:41.789Z,77.90
2023-05-09T03:03:27.225Z,78.20
2023-05-09T03:06:12.465Z,78.10
2023-05-09T03:08:57.917Z,78.30
2023-05-09T03:11:43.394Z,78.30
2023-05-09T03:14:28.489Z,78.20
2023-05-09T03:17:17.305Z,78.20
2023-05-09T03:20:05.486Z,78.10
2023-05-09T03:22:50.808Z,78.10
2023-05-09T03:25:36.358Z,78.30
2023-05-09T03:28:21.573Z,78.30
2023-05-09T03:31:06.993Z,78.10
2023-05-09T03:33:52.245Z,78.30
2023-05-09T03:36:37.741Z,79.20
2023-05-09T03:39:23.145Z,78.80
2023-05-09T03:42:08.492Z,78.70
2023-05-09T03:44:54.914Z,78.60
2023-05-09T03:47:40.060Z,78.50
2023-05-09T03:50:25.548Z,78.50
2023-05-09T03:53:11.046Z,78.40
2023-05-09T03:55:56.344Z,78.40
2023-05-09T03:58:41.828Z,78.50
2023-05-09T04:01:27.453Z,78.80
2023-05-09T04:04:13.091Z,78.90
2023-05-09T04:06:58.548Z,79.40
2023-05-09T04:09:43.871Z,79.70
2023-05-09T04:12:29.328Z,79.00
2023-05-09T04:15:14.938Z,79.40
2023-05-09T04:18:00.757Z,79.00
2023-05-09T04:20:46.348Z,79.40
2023-05-09T04:23:31.458Z,79.50
2023-05-09T04:26:17.967Z,79.10
2023-05-09T04:29:04.010Z,79.20
2023-05-09T04:31:49.598Z,79.60
2023-05-09T04:34:34.865Z,79.70
2023-05-09T04:37:20.234Z,79.40
2023-05-09T04:40:07.806Z,79.70
2023-05-09T04:42:53.413Z,79.80
2023-05-09T04:45:38.800Z,79.70
2023-05-09T04:48:24.308Z,79.90
2023-05-09T04:51:09.692Z,80.10
2023-05-09T04:53:55.421Z,79.90
2023-05-09T04:56:40.578Z,80.20
2023-05-09T04:59:26.065Z,82.30
2023-05-09T05:02:11.493Z,83.10
2023-05-09T05:05:10.144Z,81.10
2023-05-09T05:07:57.291Z,80.50
2023-05-09T05:10:42.700Z,80.50
2023-05-09T05:13:28.079Z,80.20
2023-05-09T05:16:13.646Z,80.20
2023-05-09T05:18:59.036Z,79.90
2023-05-09T05:21:44.582Z,80.00
2023-05-09T05:24:30.062Z,79.70
2023-05-09T05:27:15.339Z,79.10
2023-05-09T05:30:00.792Z,79.50
2023-05-09T05:32:46.436Z,79.40
2023-05-09T05:35:31.658Z,79.20
2023-05-09T05:38:17.010Z,79.30
2023-05-09T05:41:02.478Z,79.00
2023-05-09T05:43:47.828Z,79.00
2023-05-09T05:46:33.176Z,79.00
2023-05-09T05:49:18.604Z,79.10
2023-05-09T05:52:04.248Z,79.10
2023-05-09T05:54:49.780Z,79.20
2023-05-09T05:57:35.395Z,78.60
2023-05-09T06:00:20.828Z,78.10
2023-05-09T06:03:06.331Z,78.50
2023-05-09T06:05:51.771Z,78.30
2023-05-09T06:08:37.310Z,80.20
2023-05-09T06:11:23.431Z,79.20
2023-05-09T06:14:08.629Z,79.20
2023-05-09T06:16:54.238Z,79.00
2023-05-09T06:19:39.396Z,79.00
2023-05-09T06:22:24.782Z,78.80
2023-05-09T06:25:10.728Z,78.70
2023-05-09T06:27:56.239Z,78.60
2023-05-09T06:30:41.768Z,78.50
2023-05-09T06:33:27.214Z,78.30
2023-05-09T06:36:12.818Z,78.60
2023-05-09T06:38:58.394Z,78.00
2023-05-09T06:41:43.736Z,78.00
2023-05-09T06:44:29.068Z,77.80
2023-05-09T06:47:14.610Z,77.60
2023-05-09T06:50:00.034Z,77.60
2023-05-09T06:52:45.416Z,75.90
2023-05-09T06:55:30.975Z,74.10
2023-05-09T06:58:15.971Z,74.70
2023-05-09T07:01:01.601Z,75.20
2023-05-09T07:03:47.556Z,74.10
2023-05-09T07:06:32.918Z,74.50
2023-05-09T07:09:20.485Z,73.70
2023-05-09T07:12:08.399Z,74.30
2023-05-09T07:14:53.830Z,74.40
2023-05-09T07:17:39.787Z,74.00
2023-05-09T07:20:25.508Z,73.40
2023-05-09T07:23:10.569Z,71.40
2023-05-09T07:25:57.674Z,72.80
2023-05-09T07:28:42.878Z,69.30
2023-05-09T07:31:28.389Z,70.50
2023-05-09T07:34:15.792Z,69.20
2023-05-09T07:37:01.225Z,69.70
2023-05-09T07:39:49.472Z,69.20
2023-05-09T07:42:34.551Z,69.40
2023-05-09T07:45:21.987Z,68.70
2023-05-09T07:48:09.452Z,69.80
2023-05-09T07:50:54.830Z,69.70
2023-05-09T07:53:40.175Z,70.00
2023-05-09T07:56:26.400Z,71.00
2023-05-09T07:59:12.286Z,70.00
2023-05-09T08:01:57.468Z,68.30
2023-05-09T08:04:42.838Z,68.40
2023-05-09T08:07:27.974Z,67.90
2023-05-09T08:10:13.478Z,68.40
2023-05-09T08:12:58.761Z,68.10
2023-05-09T08:15:44.141Z,68.30
2023-05-09T08:18:29.553Z,67.60
2023-05-09T08:21:14.973Z,67.70
2023-05-09T08:24:01.760Z,68.30
2023-05-09T08:26:47.062Z,67.00
2023-05-09T08:29:32.238Z,66.60
2023-05-09T08:32:19.841Z,67.80
2023-05-09T08:35:06.035Z,67.00
2023-05-09T08:37:51.811Z,66.30
2023-05-09T08:40:37.936Z,67.20
2023-05-09T08:43:24.371Z,66.20
2023-05-09T08:46:11.567Z,66.00
2023-05-09T08:48:57.956Z,66.80
2023-05-09T08:51:43.901Z,66.90
2023-05-09T08:54:30.028Z,65.80
2023-05-09T08:57:15.685Z,65.00
2023-05-09T09:00:01.657Z,64.80
2023-05-09T09:02:47.359Z,65.40
2023-05-09T09:05:41.771Z,65.70
2023-05-09T09:08:27.934Z,64.50
2023-05-09T09:11:17.228Z,64.90
2023-05-09T09:14:10.812Z,64.80
2023-05-09T09:16:58.397Z,64.80
2023-05-09T09:19:45.033Z,64.50
2023-05-09T09:22:34.122Z,62.70
2023-05-09T09:25:19.417Z,62.00
2023-05-09T09:28:05.451Z,62.80
2023-05-09T09:30:50.507Z,62.10
2023-05-09T09:33:36.116Z,62.50
2023-05-09T09:36:29.104Z,59.60
2023-05-09T09:39:14.820Z,60.00
2023-05-09T09:42:11.491Z,58.80
2023-05-09T09:45:02.429Z,58.20
2023-05-09T09:47:49.826Z,56.30
2023-05-09T09:50:35.065Z,58.30
2023-05-09T09:53:20.713Z,58.00
2023-05-09T09:56:06.410Z,58.60
2023-05-09T09:59:12.496Z,58.90
2023-05-09T10:01:58.973Z,58.30
2023-05-09T10:04:44.139Z,57.20
2023-05-09T10:07:35.306Z,59.00
2023-05-09T10:10:21.681Z,59.60
2023-05-09T10:13:11.980Z,57.90
2023-05-09T10:15:58.851Z,57.60
2023-05-09T10:18:44.626Z,58.20
2023-05-09T10:21:30.494Z,58.30
2023-05-09T10:24:17.440Z,57.00
2023-05-09T10:27:04.632Z,57.10
2023-05-09T10:29:53.368Z,57.80
2023-05-09T10:32:53.168Z,57.10
2023-05-09T10:35:46.916Z,57.30
2023-05-09T10:38:32.417Z,58.00
2023-05-09T10:41:18.918Z,57.20
2023-05-09T10:44:04.511Z,56.60
2023-05-09T10:46:50.072Z,56.90
2023-05-09T10:49:37.100Z,57.10
2023-05-09T10:52:22.908Z,56.90
2023-05-09T10:55:09.439Z,56.80
2023-05-09T10:57:55.038Z,57.50
2023-05-09T11:00:43.346Z,54.40
2023-05-09T11:03:49.216Z,55.70
2023-05-09T11:06:50.697Z,53.10
2023-05-09T11:09:38.892Z,52.60
2023-05-09T11:12:25.350Z,54.20
2023-05-09T11:15:11.245Z,53.90
2023-05-09T11:18:12.310Z,53.20
2023-05-09T11:20:57.662Z,52.40
2023-05-09T11:23:43.008Z,50.40
2023-05-09T11:26:30.276Z,52.50
2023-05-09T11:29:16.105Z,50.50
2023-05-09T11:32:06.890Z,52.00
2023-05-09T11:34:52.182Z,51.30
2023-05-09T11:37:48.868Z,50.90
2023-05-09T11:40:34.813Z,47.40
2023-05-09T11:43:20.271Z,48.50
2023-05-09T11:46:06.239Z,47.20
2023-05-09T11:48:51.474Z,47.70
2023-05-09T11:51:38.133Z,48.80
2023-05-09T11:54:24.348Z,48.30
2023-05-09T11:57:09.814Z,48.50
2023-05-09T11:59:55.637Z,47.50
2023-05-09T12:02:43.532Z,45.90
2023-05-09T12:05:28.881Z,45.70
2023-05-09T12:08:15.471Z,46.80
2023-05-09T12:11:10.523Z,44.00
2023-05-09T12:13:55.949Z,45.80
2023-05-09T12:16:47.504Z,44.20
2023-05-09T12:19:32.850Z,46.40
2023-05-09T12:22:18.392Z,44.80
2023-05-09T12:25:07.461Z,46.20
2023-05-09T12:27:54.622Z,44.60
2023-05-09T12:30:40.830Z,43.70
2023-05-09T12:33:26.421Z,43.50
2023-05-09T12:36:13.101Z,43.70
2023-05-09T12:38:58.593Z,44.10
2023-05-09T12:42:01.203Z,43.00
2023-05-09T12:44:50.663Z,42.20
2023-05-09T12:47:37.231Z,41.80
2023-05-09T12:50:22.673Z,42.40
2023-05-09T12:53:08.085Z,40.40
2023-05-09T12:56:20.508Z,41.20
2023-05-09T12:59:10.892Z,39.90
2023-05-09T13:01:57.900Z,40.90
2023-05-09T13:04:43.012Z,40.00
2023-05-09T13:07:28.293Z,41.10
2023-05-09T13:10:23.788Z,41.90
2023-05-09T13:13:16.098Z,41.80
2023-05-09T13:16:03.625Z,41.90
2023-05-09T13:18:48.820Z,43.10
2023-05-09T13:21:35.012Z,40.80
2023-05-09T13:24:20.177Z,40.10
2023-05-09T13:27:05.693Z,40.80
2023-05-09T13:29:51.177Z,39.60
2023-05-09T13:32:36.957Z,39.00
2023-05-09T13:35:22.512Z,40.80
2023-05-09T13:38:07.856Z,40.10
2023-05-09T13:40:53.086Z,40.70
2023-05-09T13:43:39.892Z,42.10
2023-05-09T13:46:25.060Z,41.70
2023-05-09T13:49:10.394Z,40.60
2023-05-09T13:51:55.914Z,42.10
2023-05-09T13:54:41.367Z,41.90
2023-05-09T13:57:27.707Z,42.20
2023-05-09T14:00:15.683Z,41.40
2023-05-09T14:03:02.886Z,40.30
2023-05-09T14:05:48.489Z,39.90
2023-05-09T14:08:33.797Z,40.70
2023-05-09T14:11:19.182Z,41.50
2023-05-09T14:14:04.614Z,41.80
2023-05-09T14:16:50.793Z,39.80
2023-05-09T14:19:36.261Z,39.70
2023-05-09T14:22:21.716Z,38.90
2023-05-09T14:25:07.689Z,40.70
2023-05-09T14:27:53.641Z,40.00
2023-05-09T14:30:39.083Z,40.10
2023-05-09T14:33:25.647Z,41.30
2023-05-09T14:36:11.377Z,41.10
2023-05-09T14:38:56.505Z,41.20
2023-05-09T14:41:41.981Z,41.70
2023-05-09T14:44:27.463Z,41.70
2023-05-09T14:47:13.023Z,42.20
2023-05-09T14:49:58.672Z,41.50
2023-05-09T14:52:44.292Z,41.80
2023-05-09T14:55:31.095Z,40.70
2023-05-09T14:58:17.921Z,41.60
2023-05-09T15:01:04.263Z,41.60
2023-05-09T15:03:49.612Z,42.10
2023-05-09T15:06:35.413Z,41.40
2023-05-09T15:09:21.479Z,40.80
2023-05-09T15:12:07.077Z,41.40
2023-05-09T15:14:54.411Z,40.90
2023-05-09T15:17:39.777Z,41.60
2023-05-09T15:20:25.319Z,42.10
2023-05-09T15:23:12.431Z,41.50
2023-05-09T15:25:57.980Z,41.80
2023-05-09T15:28:45.352Z,41.20
2023-05-09T15:31:32.932Z,41.80
2023-05-09T15:34:18.173Z,42.40
2023-05-09T15:37:03.646Z,43.10
2023-05-09T15:39:49.112Z,43.50
2023-05-09T15:42:34.961Z,43.10
2023-05-09T15:45:20.430Z,42.80
2023-05-09T15:48:05.918Z,43.50
2023-05-09T15:50:53.061Z,42.60
2023-05-09T15:53:38.125Z,44.20
2023-05-09T15:56:23.510Z,43.70
2023-05-09T15:59:09.874Z,43.10
2023-05-09T16:01:55.982Z,43.80
2023-05-09T16:04:42.473Z,43.70
2023-05-09T16:07:27.744Z,44.80
2023-05-09T16:10:14.363Z,44.30
2023-05-09T16:12:59.827Z,44.00
2023-05-09T16:15:47.714Z,45.30
2023-05-09T16:18:33.021Z,45.00
2023-05-09T16:21:19.090Z,44.60
2023-05-09T16:24:05.004Z,45.10
2023-05-09T16:26:50.057Z,44.30
2023-05-09T16:29:35.535Z,45.20
2023-05-09T16:32:21.182Z,45.30
2023-05-09T16:35:07.600Z,45.20
2023-05-09T16:37:52.833Z,45.80
2023-05-09T16:40:38.330Z,46.10
2023-05-09T16:43:23.749Z,46.30
2023-05-09T16:46:09.328Z,47.00
2023-05-09T16:48:55.127Z,47.40
2023-05-09T16:51:40.109Z,46.10
2023-05-09T16:54:25.625Z,46.60
2023-05-09T16:57:10.950Z,47.40
2023-05-09T16:59:56.302Z,46.90
2023-05-09T17:02:41.561Z,47.80
2023-05-09T17:05:27.007Z,47.10
2023-05-09T17:08:12.390Z,47.50
2023-05-09T17:10:57.768Z,47.80
2023-05-09T17:13:43.988Z,48.40
2023-05-09T17:16:29.479Z,48.50
2023-05-09T17:19:16.042Z,49.00
2023-05-09T17:22:04.309Z,49.40
2023-05-09T17:24:49.519Z,50.10
2023-05-09T17:27:34.849Z,48.70
2023-05-09T17:30:22.806Z,48.90
2023-05-09T17:33:08.429Z,50.30
2023-05-09T17:35:53.738Z,49.70
2023-05-09T17:38:39.456Z,50.10
2023-05-09T17:41:24.617Z,50.40
2023-05-09T17:44:09.930Z,50.60
2023-05-09T17:46:55.358Z,50.50
2023-05-09T17:49:40.544Z,50.90
2023-05-09T17:52:26.032Z,50.80
2023-05-09T17:55:11.528Z,51.10
2023-05-09T17:57:56.850Z,52.30
2023-05-09T18:00:42.240Z,52.10
2023-05-09T18:03:28.823Z,52.40
2023-05-09T18:06:14.550Z,52.50
2023-05-09T18:08:59.905Z,52.50
2023-05-09T18:11:45.371Z,52.50
2023-05-09T18:14:30.597Z,53.20
2023-05-09T18:17:16.378Z,53.30
2023-05-09T18:20:01.943Z,53.70
2023-05-09T18:22:47.464Z,53.60
2023-05-09T18:25:34.733Z,54.30
2023-05-09T18:28:24.607Z,54.40
2023-05-09T18:31:11.661Z,55.10
2023-05-09T18:33:56.996Z,55.40
2023-05-09T18:36:42.380Z,54.60
2023-05-09T18:39:27.737Z,55.00
2023-05-09T18:42:15.921Z,55.30
2023-05-09T18:45:04.220Z,55.60
2023-05-09T18:47:49.277Z,55.60
2023-05-09T18:50:34.816Z,56.00
2023-05-09T18:53:20.644Z,56.10
2023-05-09T18:56:05.967Z,56.40
2023-05-09T18:58:51.528Z,56.60
2023-05-09T19:01:37.867Z,56.90
2023-05-09T19:04:23.140Z,56.90
2023-05-09T19:07:09.969Z,57.40
2023-05-09T19:09:55.290Z,57.70
2023-05-09T19:12:40.918Z,57.60
2023-05-09T19:15:26.154Z,58.10
2023-05-09T19:18:12.671Z,59.00
2023-05-09T19:20:58.180Z,58.20
2023-05-09T19:23:47.567Z,58.20
2023-05-09T19:26:32.962Z,58.70
2023-05-09T19:29:18.326Z,58.70
2023-05-09T19:32:04.915Z,58.60
2023-05-09T19:34:50.148Z,59.00
2023-05-09T19:37:36.338Z,59.10
2023-05-09T19:40:21.609Z,58.80
2023-05-09T19:43:06.808Z,59.20
2023-05-09T19:45:52.198Z,58.90
2023-05-09T19:48:37.701Z,59.20
2023-05-09T19:51:22.600Z,59.50
2023-05-09T19:54:08.069Z,59.20
2023-05-09T19:56:53.501Z,58.90
2023-05-09T19:59:39.160Z,59.30
2023-05-09T20:02:24.432Z,59.20
2023-05-09T20:05:09.860Z,59.50
2023-05-09T20:07:55.466Z,59.00
2023-05-09T20:10:40.810Z,59.00
2023-05-09T20:13:27.042Z,58.90
2023-05-09T20:16:12.878Z,58.90
2023-05-09T20:18:58.558Z,59.50
2023-05-09T20:21:44.073Z,59.60
2023-05-09T20:24:31.366Z,59.50
2023-05-09T20:27:16.376Z,60.10
2023-05-09T20:30:03.701Z,60.40
2023-05-09T20:32:49.028Z,60.50
2023-05-09T20:35:34.952Z,60.60
2023-05-09T20:38:20.389Z,60.90
2023-05-09T20:41:05.887Z,60.80
2023-05-09T20:43:51.605Z,61.00
2023-05-09T20:46:37.001Z,61.40
2023-05-09T20:49:23.075Z,61.30
2023-05-09T20:52:08.362Z,61.70
2023-05-09T20:54:53.942Z,61.60
2023-05-09T20:57:39.523Z,61.60
2023-05-09T21:00:24.982Z,61.40
2023-05-09T21:03:10.653Z,61.40
2023-05-09T21:05:56.030Z,62.10
2023-05-09T21:08:42.095Z,61.30
2023-05-09T21:11:27.546Z,61.10
2023-05-09T21:14:12.866Z,61.70
2023-05-09T21:16:58.519Z,62.30
2023-05-09T21:19:43.855Z,62.60
2023-05-09T21:22:29.087Z,62.90
2023-05-09T21:25:15.649Z,62.50
2023-05-09T21:28:01.015Z,63.50
2023-05-09T21:30:53.326Z,63.20
2023-05-09T21:33:39.050Z,63.20
2023-05-09T21:36:24.751Z,63.50
2023-05-09T21:39:10.475Z,63.30
2023-05-09T21:41:55.654Z,63.90
2023-05-09T21:44:41.101Z,63.90
2023-05-09T21:47:28.940Z,63.70
2023-05-09T21:50:14.723Z,64.00
2023-05-09T21:53:00.449Z,63.90
2023-05-09T21:55:45.535Z,63.60
2023-05-09T21:58:30.867Z,63.90
2023-05-09T22:01:18.343Z,63.70
2023-05-09T22:04:04.334Z,63.70
2023-05-09T22:06:50.056Z,63.60
2023-05-09T22:09:35.504Z,63.50
2023-05-09T22:12:21.395Z,64.30
2023-05-09T22:15:07.449Z,63.80
2023-05-09T22:17:52.659Z,64.20
2023-05-09T22:20:38.053Z,63.60
2023-05-09T22:23:23.520Z,63.90
2023-05-09T22:26:08.936Z,63.80
2023-05-09T22:28:55.528Z,64.10
2023-05-09T22:31:41.029Z,64.20
2023-05-09T22:34:26.211Z,64.50
2023-05-09T22:37:11.695Z,64.50
2023-05-09T22:39:57.134Z,64.70
2023-05-09T22:42:42.426Z,64.80
2023-05-09T22:45:27.987Z,64.80
2023-05-09T22:48:13.287Z,63.90
2023-05-09T22:50:58.684Z,64.10
2023-05-09T22:53:44.104Z,64.30
2023-05-09T22:56:29.418Z,64.60
2023-05-09T22:59:15.094Z,64.80
2023-05-09T23:02:00.482Z,64.90
2023-05-09T23:04:45.933Z,64.70
2023-05-09T23:07:31.148Z,64.90
2023-05-09T23:10:16.854Z,65.20
2023-05-09T23:13:02.596Z,65.30
2023-05-09T23:15:48.405Z,65.50
2023-05-09T23:18:33.916Z,65.70
2023-05-09T23:21:19.192Z,65.60
2023-05-09T23:24:04.613Z,65.70
2023-05-09T23:26:50.053Z,65.90
2023-05-09T23:29:35.234Z,66.00
2023-05-09T23:32:20.873Z,66.00
2023-05-09T23:35:06.861Z,65.90
2023-05-09T23:37:52.912Z,66.20
2023-05-09T23:40:38.438Z,66.10
2023-05-09T23:43:23.910Z,66.70
2023-05-09T23:46:09.131Z,67.00
2023-05-09T23:48:54.367Z,67.50
2023-05-09T23:51:39.617Z,68.00
2023-05-09T23:54:25.040Z,67.70
2023-05-09T23:57:10.371Z,67.90
2023-05-09T23:59:55.853Z,67.80
